createdAt,value
2023-03-29T00:01:00.430Z,2.91
2023-03-29T00:03:31.384Z,3.08
2023-03-29T00:06:06.322Z,3.10
2023-03-29T00:08:39.088Z,2.93
2023-03-29T00:11:09.254Z,3.08
2023-03-29T00:13:40.268Z,3.01
2023-03-29T00:16:13.090Z,2.83
2023-03-29T00:18:43.301Z,2.78
2023-03-29T00:21:13.526Z,3.01
2023-03-29T00:23:46.189Z,3.02
2023-03-29T00:26:16.173Z,3.29
2023-03-29T00:28:46.237Z,3.13
2023-03-29T00:31:18.971Z,3.10
2023-03-29T00:33:48.915Z,3.35
2023-03-29T00:36:18.869Z,3.26
2023-03-29T00:38:51.465Z,3.11
2023-03-29T00:41:21.760Z,2.89
2023-03-29T00:43:58.104Z,2.94
2023-03-29T00:46:30.025Z,2.93
2023-03-29T00:49:05.498Z,2.72
2023-03-29T00:51:39.537Z,2.73
2023-03-29T00:54:19.701Z,2.66
2023-03-29T00:56:53.965Z,2.58
2023-03-29T00:59:32.940Z,2.60
2023-03-29T01:02:07.286Z,2.55
2023-03-29T01:04:45.700Z,2.85
2023-03-29T01:07:21.921Z,2.87
2023-03-29T01:10:01.901Z,2.59
2023-03-29T01:12:37.783Z,2.70
2023-03-29T01:15:13.181Z,2.34
2023-03-29T01:17:50.410Z,2.30
2023-03-29T01:20:27.916Z,2.56
2023-03-29T01:23:21.474Z,2.31
2023-03-29T01:26:07.719Z,2.49
2023-03-29T01:28:48.493Z,2.45
2023-03-29T01:31:25.813Z,2.62
2023-03-29T01:34:04.290Z,2.43
2023-03-29T01:36:42.247Z,2.41
2023-03-29T01:39:12.330Z,2.49
2023-03-29T01:41:51.397Z,2.34
2023-03-29T01:44:34.429Z,2.40
2023-03-29T01:47:14.084Z,2.18
2023-03-29T01:49:52.353Z,2.33
2023-03-29T01:52:28.329Z,2.59
2023-03-29T01:55:05.815Z,2.57
2023-03-29T01:57:39.123Z,2.48
2023-03-29T02:00:19.262Z,2.68
2023-03-29T02:02:53.010Z,2.50
2023-03-29T02:05:27.107Z,2.55
2023-03-29T02:08:03.741Z,2.55
2023-03-29T02:10:36.908Z,2.61
2023-03-29T02:13:07.424Z,2.32
2023-03-29T02:15:40.197Z,2.50
2023-03-29T02:18:10.414Z,2.40
2023-03-29T02:20:47.474Z,2.51
2023-03-29T02:23:24.129Z,2.67
2023-03-29T02:25:57.160Z,2.50
2023-03-29T02:28:31.026Z,2.48
2023-03-29T02:31:09.045Z,2.44
2023-03-29T02:33:48.356Z,2.45
2023-03-29T02:36:24.087Z,2.38
2023-03-29T02:38:57.114Z,2.48
2023-03-29T02:41:29.639Z,2.45
2023-03-29T02:44:02.237Z,2.34
2023-03-29T02:46:34.883Z,2.31
2023-03-29T02:49:05.367Z,2.41
2023-03-29T02:51:38.286Z,2.67
2023-03-29T02:54:12.966Z,2.54
2023-03-29T02:56:48.413Z,2.81
2023-03-29T02:59:22.739Z,3.04
2023-03-29T03:01:56.797Z,3.00
2023-03-29T03:04:27.084Z,2.77
2023-03-29T03:06:57.032Z,2.96
2023-03-29T03:09:27.561Z,3.07
2023-03-29T03:11:57.940Z,3.24
2023-03-29T03:14:29.586Z,3.29
2023-03-29T03:17:04.851Z,3.42
2023-03-29T03:19:36.456Z,3.49
2023-03-29T03:22:08.001Z,3.56
2023-03-29T03:24:37.938Z,4.18
2023-03-29T03:27:08.663Z,3.93
2023-03-29T03:29:38.802Z,3.89
2023-03-29T03:32:17.676Z,4.12
2023-03-29T03:35:07.628Z,4.20
2023-03-29T03:37:38.439Z,3.99
2023-03-29T03:40:14.200Z,3.89
2023-03-29T03:42:44.547Z,3.72
2023-03-29T03:45:14.863Z,3.69
2023-03-29T03:48:00.016Z,3.78
2023-03-29T03:50:58.519Z,3.64
2023-03-29T03:53:34.013Z,3.99
2023-03-29T03:56:14.021Z,4.05
2023-03-29T03:59:14.821Z,3.90
2023-03-29T04:02:05.066Z,4.11
2023-03-29T04:04:38.166Z,4.04
2023-03-29T04:07:17.951Z,3.99
2023-03-29T04:10:08.863Z,3.89
2023-03-29T04:12:52.804Z,4.19
2023-03-29T04:15:23.943Z,3.88
2023-03-29T04:18:03.342Z,3.87
2023-03-29T04:20:39.248Z,3.85
2023-03-29T04:23:09.256Z,4.07
2023-03-29T04:25:40.259Z,4.04
2023-03-29T04:28:16.346Z,3.91
2023-03-29T04:31:05.206Z,3.92
2023-03-29T04:34:04.620Z,3.70
2023-03-29T04:36:37.600Z,4.14
2023-03-29T04:39:12.406Z,4.25
2023-03-29T04:41:42.474Z,4.30
2023-03-29T04:44:23.284Z,4.23
2023-03-29T04:46:53.665Z,4.55
2023-03-29T04:49:38.936Z,4.51
2023-03-29T04:52:16.659Z,4.88
2023-03-29T04:54:46.893Z,4.72
2023-03-29T04:57:27.669Z,4.56
2023-03-29T05:00:27.423Z,4.69
2023-03-29T05:02:57.921Z,4.78
2023-03-29T05:05:29.594Z,4.54
2023-03-29T05:08:05.561Z,4.70
2023-03-29T05:10:50.076Z,4.92
2023-03-29T05:13:20.721Z,4.66
2023-03-29T05:15:50.861Z,4.55
2023-03-29T05:18:21.192Z,4.53
2023-03-29T05:20:54.318Z,4.58
2023-03-29T05:23:28.960Z,4.90
2023-03-29T05:26:10.943Z,4.50
2023-03-29T05:28:42.319Z,4.62
2023-03-29T05:31:14.197Z,4.39
2023-03-29T05:33:47.789Z,4.25
2023-03-29T05:36:20.165Z,4.65
2023-03-29T05:38:55.276Z,4.26
2023-03-29T05:41:26.637Z,4.26
2023-03-29T05:44:17.074Z,4.73
2023-03-29T05:46:49.663Z,5.05
2023-03-29T05:49:21.663Z,4.80
2023-03-29T05:52:12.141Z,4.89
2023-03-29T05:54:45.109Z,4.85
2023-03-29T05:57:15.680Z,4.70
2023-03-29T05:59:45.691Z,5.13
2023-03-29T06:02:19.006Z,4.98
2023-03-29T06:04:55.552Z,4.84
2023-03-29T06:07:25.948Z,4.96
2023-03-29T06:10:27.587Z,4.95
2023-03-29T06:13:09.051Z,5.46
2023-03-29T06:15:39.166Z,5.46
2023-03-29T06:18:12.080Z,5.33
2023-03-29T06:20:42.817Z,5.38
2023-03-29T06:23:17.163Z,5.53
2023-03-29T06:25:51.552Z,5.41
2023-03-29T06:28:21.960Z,5.67
2023-03-29T06:30:54.178Z,5.91
2023-03-29T06:33:25.495Z,5.69
2023-03-29T06:36:20.356Z,6.07
2023-03-29T06:38:50.749Z,6.01
2023-03-29T06:41:39.278Z,5.78
2023-03-29T06:44:09.284Z,5.81
2023-03-29T06:46:48.374Z,5.82
2023-03-29T06:49:18.485Z,5.59
2023-03-29T06:52:02.253Z,5.47
2023-03-29T06:54:33.969Z,6.01
2023-03-29T06:57:08.688Z,6.11
2023-03-29T06:59:38.833Z,6.91
2023-03-29T07:02:16.846Z,6.56
2023-03-29T07:04:54.594Z,6.34
2023-03-29T07:07:37.640Z,6.31
2023-03-29T07:10:18.340Z,6.94
2023-03-29T07:13:17.765Z,6.28
2023-03-29T07:15:48.028Z,6.54
2023-03-29T07:18:41.880Z,5.85
2023-03-29T07:21:15.764Z,6.09
2023-03-29T07:23:45.803Z,6.48
2023-03-29T07:26:28.983Z,7.15
2023-03-29T07:29:03.621Z,6.30
2023-03-29T07:31:35.940Z,5.83
2023-03-29T07:34:25.839Z,5.80
2023-03-29T07:36:55.892Z,6.18
2023-03-29T07:39:26.442Z,6.45
2023-03-29T07:42:26.049Z,6.16
2023-03-29T07:44:58.988Z,5.80
2023-03-29T07:47:35.286Z,5.96
2023-03-29T07:50:07.602Z,6.33
2023-03-29T07:52:38.471Z,6.14
2023-03-29T07:55:10.557Z,6.10
2023-03-29T07:57:57.255Z,6.36
2023-03-29T08:00:30.838Z,6.59
2023-03-29T08:03:20.981Z,6.53
2023-03-29T08:05:51.714Z,6.39
2023-03-29T08:08:22.275Z,6.45
2023-03-29T08:10:59.948Z,6.28
2023-03-29T08:14:02.093Z,6.29
2023-03-29T08:16:58.943Z,6.18
2023-03-29T08:19:29.235Z,6.13
2023-03-29T08:22:11.064Z,6.39
2023-03-29T08:24:59.468Z,7.02
2023-03-29T08:27:37.317Z,5.65
2023-03-29T08:30:12.213Z,5.72
2023-03-29T08:32:48.625Z,5.28
2023-03-29T08:35:20.817Z,5.95
2023-03-29T08:38:14.421Z,5.48
2023-03-29T08:40:44.955Z,5.26
2023-03-29T08:43:39.429Z,5.40
2023-03-29T08:46:35.873Z,5.73
2023-03-29T08:49:26.418Z,5.86
2023-03-29T08:52:03.447Z,5.52
2023-03-29T08:54:44.366Z,5.83
2023-03-29T08:57:22.313Z,5.90
2023-03-29T09:00:05.296Z,5.55
2023-03-29T09:02:38.492Z,5.83
2023-03-29T09:05:25.900Z,5.83
2023-03-29T09:08:05.723Z,5.57
2023-03-29T09:10:47.096Z,5.08
2023-03-29T09:13:37.713Z,4.91
2023-03-29T09:16:21.098Z,5.85
2023-03-29T09:19:08.200Z,4.96
2023-03-29T09:21:47.039Z,4.52
2023-03-29T09:24:39.725Z,4.16
2023-03-29T09:27:24.633Z,4.52
2023-03-29T09:30:07.954Z,6.09
2023-03-29T09:33:03.325Z,4.83
2023-03-29T09:36:02.344Z,4.28
2023-03-29T09:38:42.629Z,4.55
2023-03-29T09:41:26.773Z,4.77
2023-03-29T09:44:00.827Z,4.70
2023-03-29T09:46:42.683Z,3.86
2023-03-29T09:49:18.659Z,4.28
2023-03-29T09:51:53.013Z,4.17
2023-03-29T09:54:26.683Z,4.06
2023-03-29T09:57:22.393Z,4.00
2023-03-29T09:59:54.578Z,3.92
2023-03-29T10:02:24.689Z,4.38
2023-03-29T10:05:01.031Z,4.62
2023-03-29T10:07:44.879Z,4.60
2023-03-29T10:10:25.743Z,4.35
2023-03-29T10:13:00.152Z,4.01
2023-03-29T10:15:32.661Z,4.03
2023-03-29T10:18:05.820Z,4.12
2023-03-29T10:20:38.798Z,4.39
2023-03-29T10:23:11.038Z,3.93
2023-03-29T10:25:44.598Z,3.99
2023-03-29T10:28:21.209Z,4.32
2023-03-29T10:30:58.104Z,4.44
2023-03-29T10:33:34.262Z,4.27
2023-03-29T10:36:07.910Z,4.46
2023-03-29T10:38:40.469Z,4.15
2023-03-29T10:41:16.058Z,3.96
2023-03-29T10:43:50.983Z,4.15
2023-03-29T10:46:25.048Z,3.95
2023-03-29T10:48:59.399Z,3.82
2023-03-29T10:51:34.588Z,3.13
2023-03-29T10:54:06.420Z,3.33
2023-03-29T10:56:46.069Z,3.15
2023-03-29T10:59:30.466Z,2.87
2023-03-29T11:02:28.114Z,3.03
2023-03-29T11:05:12.234Z,2.64
2023-03-29T11:07:58.889Z,2.89
2023-03-29T11:10:43.944Z,2.91
2023-03-29T11:13:28.784Z,2.81
2023-03-29T11:16:11.106Z,2.68
2023-03-29T11:19:01.633Z,2.61
2023-03-29T11:21:42.679Z,2.82
2023-03-29T11:24:30.548Z,2.54
2023-03-29T11:27:16.136Z,2.70
2023-03-29T11:30:03.837Z,2.71
2023-03-29T11:32:44.183Z,2.77
2023-03-29T11:35:33.357Z,2.70
2023-03-29T11:38:13.897Z,2.65
2023-03-29T11:40:54.583Z,2.66
2023-03-29T11:43:32.301Z,2.71
2023-03-29T11:46:15.113Z,2.96
2023-03-29T11:48:53.605Z,2.66
2023-03-29T11:51:29.576Z,2.84
2023-03-29T11:54:08.668Z,2.91
2023-03-29T11:56:47.147Z,2.86
2023-03-29T11:59:27.431Z,2.79
2023-03-29T12:02:12.428Z,2.73
2023-03-29T12:04:52.014Z,2.77
2023-03-29T12:07:29.820Z,2.85
2023-03-29T12:10:05.609Z,2.78
2023-03-29T12:12:48.163Z,2.83
2023-03-29T12:15:22.454Z,2.76
2023-03-29T12:18:05.408Z,2.86
2023-03-29T12:20:42.835Z,2.97
2023-03-29T12:23:20.714Z,2.89
2023-03-29T12:26:00.279Z,3.09
2023-03-29T12:28:54.646Z,3.04
2023-03-29T12:31:37.326Z,3.19
2023-03-29T12:34:38.325Z,3.01
2023-03-29T12:37:40.809Z,3.11
2023-03-29T12:40:38.720Z,3.27
2023-03-29T12:43:33.184Z,3.69
2023-03-29T12:46:25.914Z,3.52
2023-03-29T12:48:59.984Z,3.36
2023-03-29T12:51:37.075Z,3.40
2023-03-29T12:54:13.452Z,3.36
2023-03-29T12:56:56.767Z,3.06
2023-03-29T12:59:39.861Z,3.23
2023-03-29T13:02:28.893Z,3.08
2023-03-29T13:05:01.459Z,2.75
2023-03-29T13:07:46.496Z,2.44
2023-03-29T13:10:33.414Z,2.49
2023-03-29T13:13:17.758Z,2.39
2023-03-29T13:15:48.717Z,2.10
2023-03-29T13:18:38.038Z,2.29
2023-03-29T13:21:23.032Z,2.13
2023-03-29T13:24:06.831Z,2.23
2023-03-29T13:26:53.250Z,2.36
2023-03-29T13:29:57.182Z,2.29
2023-03-29T13:33:01.124Z,2.40
2023-03-29T13:35:48.086Z,2.38
2023-03-29T13:38:26.121Z,2.27
2023-03-29T13:41:07.381Z,2.34
2023-03-29T13:43:40.515Z,2.46
2023-03-29T13:46:41.609Z,2.57
2023-03-29T13:49:23.985Z,2.64
2023-03-29T13:52:09.399Z,2.48
2023-03-29T13:54:48.297Z,2.97
2023-03-29T13:57:24.213Z,2.93
2023-03-29T14:00:02.294Z,2.63
2023-03-29T14:02:49.583Z,2.67
2023-03-29T14:05:24.026Z,2.66
2023-03-29T14:07:56.998Z,2.72
2023-03-29T14:10:30.636Z,2.90
2023-03-29T14:13:04.148Z,2.70
2023-03-29T14:15:49.030Z,2.69
2023-03-29T14:18:24.080Z,3.06
2023-03-29T14:20:57.845Z,2.80
2023-03-29T14:23:31.532Z,2.73
2023-03-29T14:26:09.269Z,2.96
2023-03-29T14:28:48.263Z,2.84
2023-03-29T14:31:22.493Z,3.10
2023-03-29T14:33:56.228Z,2.96
2023-03-29T14:36:27.844Z,3.01
2023-03-29T14:39:03.232Z,2.87
2023-03-29T14:41:34.155Z,2.73
2023-03-29T14:44:09.566Z,2.74
2023-03-29T14:46:40.321Z,2.71
2023-03-29T14:49:12.485Z,2.96
2023-03-29T14:51:43.125Z,2.73
2023-03-29T14:54:22.844Z,2.84
2023-03-29T14:56:54.080Z,2.63
2023-03-29T14:59:31.429Z,3.01
2023-03-29T15:02:01.766Z,2.98
2023-03-29T15:04:37.639Z,2.91
2023-03-29T15:07:08.590Z,2.98
2023-03-29T15:09:40.126Z,2.86
2023-03-29T15:12:10.699Z,2.99
2023-03-29T15:14:44.576Z,3.31
2023-03-29T15:17:47.761Z,3.01
2023-03-29T15:20:25.763Z,3.00
2023-03-29T15:23:00.680Z,3.28
2023-03-29T15:25:36.611Z,3.11
2023-03-29T15:28:07.735Z,2.96
2023-03-29T15:30:54.215Z,2.95
2023-03-29T15:33:37.632Z,2.98
2023-03-29T15:36:10.406Z,3.04
2023-03-29T15:38:44.565Z,2.83
2023-03-29T15:41:17.182Z,3.04
2023-03-29T15:43:47.209Z,3.30
2023-03-29T15:46:19.838Z,3.43
2023-03-29T15:48:50.098Z,3.14
2023-03-29T15:51:20.115Z,2.81
2023-03-29T15:53:50.164Z,2.96
2023-03-29T15:56:23.306Z,2.91
2023-03-29T15:58:53.353Z,2.87
2023-03-29T16:01:37.558Z,2.83
2023-03-29T16:04:09.839Z,3.01
2023-03-29T16:06:41.142Z,3.13
2023-03-29T16:09:12.100Z,3.01
2023-03-29T16:11:43.832Z,3.30
2023-03-29T16:14:24.385Z,3.48
2023-03-29T16:17:01.438Z,3.87
2023-03-29T16:19:33.887Z,3.65
2023-03-29T16:22:07.599Z,3.55
2023-03-29T16:24:38.523Z,3.52
2023-03-29T16:27:08.673Z,3.89
2023-03-29T16:29:42.018Z,4.12
2023-03-29T16:32:15.755Z,3.83
2023-03-29T16:34:46.048Z,4.09
2023-03-29T16:37:16.060Z,4.61
2023-03-29T16:39:46.516Z,4.36
2023-03-29T16:42:20.695Z,3.98
2023-03-29T16:44:51.573Z,4.14
2023-03-29T16:47:24.304Z,4.11
2023-03-29T16:49:55.359Z,4.10
2023-03-29T16:52:25.981Z,4.30
2023-03-29T16:54:55.915Z,4.08
2023-03-29T16:57:26.923Z,4.15
2023-03-29T16:59:57.112Z,4.25
2023-03-29T17:02:29.683Z,4.87
2023-03-29T17:04:59.818Z,5.54
2023-03-29T17:07:29.881Z,4.74
2023-03-29T17:09:59.899Z,4.30
2023-03-29T17:12:29.943Z,4.53
2023-03-29T17:15:00.585Z,4.33
2023-03-29T17:17:33.201Z,4.77
2023-03-29T17:20:03.247Z,4.72
2023-03-29T17:22:33.223Z,4.75
2023-03-29T17:25:03.983Z,4.34
2023-03-29T17:27:33.935Z,4.33
2023-03-29T17:30:04.041Z,4.63
2023-03-29T17:32:36.993Z,4.63
2023-03-29T17:35:08.113Z,5.02
2023-03-29T17:37:38.225Z,5.36
2023-03-29T17:40:13.980Z,6.86
2023-03-29T17:42:46.559Z,6.85
2023-03-29T17:45:17.616Z,6.96
2023-03-29T17:47:50.503Z,7.00
2023-03-29T17:50:21.579Z,6.90
2023-03-29T17:52:51.616Z,6.88
2023-03-29T17:55:22.145Z,6.67
2023-03-29T17:57:52.253Z,7.21
2023-03-29T18:00:23.048Z,6.80
2023-03-29T18:02:57.086Z,6.90
2023-03-29T18:05:27.191Z,7.05
2023-03-29T18:07:57.953Z,6.71
2023-03-29T18:10:28.214Z,6.25
2023-03-29T18:12:58.255Z,6.92
2023-03-29T18:15:28.429Z,6.86
2023-03-29T18:18:01.562Z,6.50
2023-03-29T18:20:31.601Z,6.58
2023-03-29T18:23:01.710Z,6.48
2023-03-29T18:25:32.100Z,6.92
2023-03-29T18:28:02.151Z,7.41
2023-03-29T18:30:32.205Z,7.14
2023-03-29T18:33:04.908Z,7.14
2023-03-29T18:35:34.983Z,7.76
2023-03-29T18:38:06.770Z,7.73
2023-03-29T18:40:37.379Z,7.12
2023-03-29T18:43:07.457Z,7.43
2023-03-29T18:45:37.586Z,7.30
2023-03-29T18:48:10.362Z,7.32
2023-03-29T18:50:41.021Z,7.39
2023-03-29T18:53:11.152Z,7.35
2023-03-29T18:55:43.283Z,7.49
2023-03-29T18:58:13.704Z,8.11
2023-03-29T19:00:45.257Z,9.05
2023-03-29T19:03:18.465Z,9.27
2023-03-29T19:05:53.127Z,8.94
2023-03-29T19:08:26.507Z,9.02
2023-03-29T19:11:05.790Z,11.30
2023-03-29T19:13:42.578Z,14.02
2023-03-29T19:16:30.543Z,12.17
2023-03-29T19:19:14.349Z,10.38
2023-03-29T19:21:47.326Z,10.27
2023-03-29T19:24:18.458Z,10.18
2023-03-29T19:26:55.252Z,9.66
2023-03-29T19:29:27.950Z,9.91
2023-03-29T19:32:03.009Z,10.05
2023-03-29T19:34:36.426Z,10.74
2023-03-29T19:37:06.657Z,10.47
2023-03-29T19:39:37.263Z,10.61
2023-03-29T19:42:07.884Z,9.89
2023-03-29T19:44:38.725Z,10.18
2023-03-29T19:47:12.297Z,10.42
2023-03-29T19:49:46.515Z,9.98
2023-03-29T19:52:20.447Z,9.10
2023-03-29T19:54:56.228Z,10.02
2023-03-29T19:57:28.482Z,10.83
2023-03-29T20:00:01.778Z,12.03
2023-03-29T20:02:36.467Z,12.88
2023-03-29T20:05:12.688Z,12.66
2023-03-29T20:07:47.394Z,15.03
2023-03-29T20:10:17.977Z,13.12
2023-03-29T20:12:50.887Z,11.70
2023-03-29T20:15:21.414Z,11.03
2023-03-29T20:17:57.033Z,10.96
2023-03-29T20:20:32.045Z,10.93
2023-03-29T20:23:08.392Z,10.59
2023-03-29T20:25:41.971Z,10.67
2023-03-29T20:28:17.808Z,10.36
2023-03-29T20:30:51.378Z,9.90
2023-03-29T20:33:21.906Z,9.41
2023-03-29T20:35:57.736Z,10.03
2023-03-29T20:38:28.343Z,9.92
2023-03-29T20:40:58.666Z,9.38
2023-03-29T20:43:30.028Z,9.83
2023-03-29T20:46:02.537Z,9.06
2023-03-29T20:48:33.314Z,9.96
2023-03-29T20:51:10.404Z,9.88
2023-03-29T20:53:43.042Z,9.92
2023-03-29T20:56:16.138Z,8.81
2023-03-29T20:58:46.620Z,7.00
2023-03-29T21:01:17.134Z,10.80
2023-03-29T21:03:49.105Z,9.72
2023-03-29T21:06:24.461Z,6.63
2023-03-29T21:08:55.689Z,5.70
2023-03-29T21:11:26.060Z,5.61
2023-03-29T21:13:57.043Z,5.01
2023-03-29T21:16:29.312Z,5.47
2023-03-29T21:18:59.728Z,5.14
2023-03-29T21:21:36.221Z,5.23
2023-03-29T21:24:08.039Z,4.75
2023-03-29T21:26:47.410Z,4.71
2023-03-29T21:29:17.765Z,4.54
2023-03-29T21:31:50.576Z,4.12
2023-03-29T21:34:21.956Z,3.92
2023-03-29T21:36:56.868Z,3.73
2023-03-29T21:39:29.256Z,3.75
2023-03-29T21:41:59.314Z,3.50
2023-03-29T21:44:29.485Z,3.56
2023-03-29T21:46:59.703Z,3.52
2023-03-29T21:49:29.982Z,3.24
2023-03-29T21:52:02.578Z,3.33
2023-03-29T21:54:32.642Z,3.18
2023-03-29T21:57:02.695Z,3.34
2023-03-29T21:59:32.820Z,3.30
2023-03-29T22:02:02.844Z,3.04
2023-03-29T22:04:36.916Z,2.99
2023-03-29T22:07:13.767Z,3.36
2023-03-29T22:09:47.340Z,3.24
2023-03-29T22:12:18.856Z,2.85
2023-03-29T22:14:49.034Z,3.20
2023-03-29T22:17:19.379Z,3.14
2023-03-29T22:19:49.770Z,3.24
2023-03-29T22:22:22.378Z,3.60
2023-03-29T22:24:55.946Z,3.80
2023-03-29T22:27:26.321Z,3.41
2023-03-29T22:29:56.260Z,3.20
2023-03-29T22:32:26.521Z,4.08
2023-03-29T22:34:56.579Z,3.85
2023-03-29T22:37:29.198Z,3.88
2023-03-29T22:39:59.371Z,3.95
2023-03-29T22:42:29.537Z,3.82
2023-03-29T22:44:59.629Z,3.92
2023-03-29T22:47:29.772Z,4.09
2023-03-29T22:49:59.745Z,4.09
2023-03-29T22:52:32.283Z,4.03
2023-03-29T22:55:02.266Z,3.74
2023-03-29T22:57:32.499Z,3.83
2023-03-29T23:00:02.733Z,4.19
2023-03-29T23:02:32.762Z,4.16
2023-03-29T23:05:02.682Z,4.25
2023-03-29T23:07:36.926Z,4.26
2023-03-29T23:10:08.663Z,4.54
2023-03-29T23:12:39.404Z,4.08
2023-03-29T23:15:11.458Z,4.18
2023-03-29T23:17:41.450Z,4.46
2023-03-29T23:20:13.383Z,4.69
2023-03-29T23:22:45.916Z,4.01
2023-03-29T23:25:15.825Z,4.05
2023-03-29T23:27:45.732Z,4.27
2023-03-29T23:30:16.177Z,4.04
2023-03-29T23:32:46.194Z,3.97
2023-03-29T23:35:16.211Z,4.01
2023-03-29T23:37:49.232Z,4.15
2023-03-29T23:40:19.642Z,4.39
2023-03-29T23:42:49.693Z,4.25
2023-03-29T23:45:22.038Z,4.81
2023-03-29T23:47:52.386Z,4.29
2023-03-29T23:50:22.738Z,4.26
2023-03-29T23:52:55.233Z,4.39
2023-03-29T23:55:25.214Z,4.06
2023-03-29T23:57:55.256Z,4.14
